Time;durP1;ratioP1;P1;durP2;ratioP2;P2;SDS_P1;SDS_P2;PMS_P1;PMS_P2;Temp;Humidity;BMP_temperature;BMP_pressure;BME280_temperature;BME280_humidity;BME280_pressure;Samples;Min_cycle;Max_cycle;Signal;HPM_P1;HPM_P2
2021/10/16 00:04:07;;;;;;;;;57.00;48.00;;;;;;;;2;245075021;245075021;-74
2021/10/16 00:12:53;;;;;;;;;57.50;48.50;;;;;;;;2;268799239;268799239;-74
2021/10/16 00:19:57;;;;;;;;;52.50;44.50;;;;;;;;2;237810715;237810715;-74
2021/10/16 00:28:06;;;;;;;;;63.50;52.00;;;;;;;;2;239184646;239184646;-74
2021/10/16 00:35:40;;;;;;;;;60.00;50.50;;;;;;;;2;235233514;235233514;-74
2021/10/16 00:44:23;;;;;;;;;68.50;61.00;;;;;;;;2;269400676;269400676;-74
2021/10/16 00:51:59;;;;;;;;;54.50;45.50;;;;;;;;2;237997490;237997490;-74
2021/10/16 01:00:39;;;;;;;;;66.50;59.50;;;;;;;;2;263829409;263829409;-74
2021/10/16 01:08:16;;;;;;;;;61.00;51.50;;;;;;;;2;238537651;238537651;-74
2021/10/16 01:16:59;;;;;;;;;63.00;56.00;;;;;;;;2;262368541;262368541;-74
2021/10/16 01:24:42;;;;;;;;;70.00;62.00;;;;;;;;2;243597085;243597085;-73
2021/10/16 01:33:30;;;;;;;;;63.00;55.00;;;;;;;;2;261090661;261090661;-74
2021/10/16 01:41:16;;;;;;;;;47.00;41.00;;;;;;;;2;244219988;244219988;-74
2021/10/16 01:50:13;;;;;;;;;61.00;48.50;;;;;;;;2;273631116;273631116;-74
2021/10/16 01:58:05;;;;;;;;;65.00;56.00;;;;;;;;2;246239082;246239082;-74
2021/10/16 02:06:59;;;;;;;;;66.00;57.50;;;;;;;;2;271395508;271395508;-74
2021/10/16 02:14:44;;;;;;;;;59.50;50.50;;;;;;;;2;242930001;242930001;-74
2021/10/16 02:23:37;;;;;;;;;60.50;50.50;;;;;;;;2;270708699;270708699;-74
2021/10/16 02:31:21;;;;;;;;;53.00;45.00;;;;;;;;2;241886239;241886239;-74
2021/10/16 02:40:19;;;;;;;;;57.50;48.00;;;;;;;;2;273153241;273153241;-74
2021/10/16 02:48:01;;;;;;;;;53.50;45.50;;;;;;;;2;241903857;241903857;-74
2021/10/16 02:56:49;;;;;;;;;59.00;49.50;;;;;;;;2;268902638;268902638;-74
2021/10/16 03:04:28;;;;;;;;;61.00;52.50;;;;;;;;2;243269061;243269061;-74
2021/10/16 03:13:10;;;;;;;;;56.00;47.50;;;;;;;;2;263723345;263723345;-74
2021/10/16 03:20:50;;;;;;;;;60.50;50.50;;;;;;;;2;242092120;242092120;-74
2021/10/16 03:29:31;;;;;;;;;55.00;46.50;;;;;;;;2;263887723;263887723;-74
2021/10/16 03:37:12;;;;;;;;;43.50;38.50;;;;;;;;2;243932641;243932641;-74
2021/10/16 03:45:57;;;;;;;;;28.50;25.50;;;;;;;;2;265206014;265206014;-74
2021/10/16 03:53:43;;;;;;;;;50.50;40.50;;;;;;;;2;244891131;244891131;-74
2021/10/16 04:02:30;;;;;;;;;57.00;47.00;;;;;;;;2;266427014;266427014;-74
2021/10/16 04:10:01;;;;;;;;;54.50;46.50;;;;;;;;2;239204292;239204292;-74
2021/10/16 04:18:35;;;;;;;;;62.00;53.00;;;;;;;;2;259404387;259404387;-74
2021/10/16 04:26:11;;;;;;;;;46.50;40.50;;;;;;;;2;241773090;241773090;-74
2021/10/16 04:34:53;;;;;;;;;52.50;44.50;;;;;;;;2;264970425;264970425;-74
2021/10/16 04:42:24;;;;;;;;;57.00;47.50;;;;;;;;2;237605956;237605956;-74
2021/10/16 04:51:04;;;;;;;;;46.00;40.00;;;;;;;;2;263039175;263039175;-74
2021/10/16 04:58:42;;;;;;;;;60.00;49.50;;;;;;;;2;240980010;240980010;-74
2021/10/16 05:07:22;;;;;;;;;37.00;33.50;;;;;;;;2;262043215;262043215;-74
2021/10/16 05:15:05;;;;;;;;;57.50;49.50;;;;;;;;2;244377462;244377462;-74
2021/10/16 05:23:55;;;;;;;;;52.00;44.00;;;;;;;;2;268795251;268795251;-74
2021/10/16 05:31:31;;;;;;;;;62.50;53.50;;;;;;;;2;241845206;241845206;-74
2021/10/16 05:40:18;;;;;;;;;60.00;50.00;;;;;;;;2;265766655;265766655;-74
2021/10/16 05:47:58;;;;;;;;;62.50;53.50;;;;;;;;2;242299941;242299941;-74
2021/10/16 05:56:47;;;;;;;;;53.00;45.00;;;;;;;;2;266913770;266913770;-74
2021/10/16 06:04:24;;;;;;;;;53.00;45.00;;;;;;;;2;243094698;243094698;-74
2021/10/16 06:13:17;;;;;;;;;54.00;45.50;;;;;;;;2;270570042;270570042;-74
2021/10/16 06:21:05;;;;;;;;;53.50;45.50;;;;;;;;2;246904919;246904919;-73
2021/10/16 06:30:00;;;;;;;;;61.50;51.50;;;;;;;;2;269021790;269021790;-76
2021/10/16 06:38:14;;;;;;;;;66.50;56.00;;;;;;;;2;261079718;261079718;-76
2021/10/16 06:47:17;;;;;;;;;50.50;43.50;;;;;;;;2;276825091;276825091;-75
2021/10/16 06:55:10;;;;;;;;;56.50;47.50;;;;;;;;2;250922806;250922806;-76
2021/10/16 07:04:11;;;;;;;;;41.00;30.00;;;;;;;;2;273843999;273843999;-76
2021/10/16 07:12:09;;;;;;;;;51.50;44.00;;;;;;;;2;249713229;249713229;-76
2021/10/16 07:21:14;;;;;;;;;63.50;53.00;;;;;;;;2;277010444;277010444;-76
2021/10/16 07:29:10;;;;;;;;;62.50;53.00;;;;;;;;2;250122031;250122031;-75
2021/10/16 07:38:20;;;;;;;;;55.50;46.50;;;;;;;;2;279360085;279360085;-75
2021/10/16 07:46:16;;;;;;;;;59.00;49.50;;;;;;;;2;250953125;250953125;-75
2021/10/16 07:55:24;;;;;;;;;55.00;46.50;;;;;;;;2;278259066;278259066;-76
2021/10/16 08:03:18;;;;;;;;;73.00;61.50;;;;;;;;2;247516806;247516806;-76
2021/10/16 08:12:21;;;;;;;;;77.00;74.50;;;;;;;;2;275860319;275860319;-75
2021/10/16 08:20:18;;;;;;;;;64.00;56.00;;;;;;;;2;250917849;250917849;-75
2021/10/16 08:29:26;;;;;;;;;62.00;51.50;;;;;;;;2;279008533;279008533;-75
2021/10/16 08:37:19;;;;;;;;;61.50;52.00;;;;;;;;2;251304842;251304842;-75
2021/10/16 08:46:17;;;;;;;;;56.50;47.00;;;;;;;;2;274038615;274038615;-76
2021/10/16 08:54:11;;;;;;;;;56.50;47.00;;;;;;;;2;248748733;248748733;-79
2021/10/16 09:03:26;;;;;;;;;62.00;52.50;;;;;;;;2;268034283;268034283;-75
2021/10/16 09:11:11;;;;;;;;;51.50;44.00;;;;;;;;2;246695495;246695495;-74
2021/10/16 09:20:09;;;;;;;;;57.00;48.00;;;;;;;;2;272379791;272379791;-75
2021/10/16 09:28:11;;;;;;;;;62.50;50.00;;;;;;;;2;243352321;243352321;-75
2021/10/16 09:37:11;;;;;;;;;60.00;50.00;;;;;;;;2;272331784;272331784;-75
2021/10/16 09:44:56;;;;;;;;;48.50;41.50;;;;;;;;2;241491656;241491656;-75
2021/10/16 09:53:37;;;;;;;;;63.00;54.00;;;;;;;;2;264258445;264258445;-74
2021/10/16 10:01:10;;;;;;;;;56.00;47.00;;;;;;;;2;236187501;236187501;-74
2021/10/16 10:09:52;;;;;;;;;53.50;45.50;;;;;;;;2;263430810;263430810;-76
2021/10/16 10:17:26;;;;;;;;;60.50;50.50;;;;;;;;2;237370369;237370369;-75
2021/10/16 10:26:19;;;;;;;;;60.00;45.00;;;;;;;;2;260182950;260182950;-79
2021/10/16 10:34:03;;;;;;;;;61.50;51.00;;;;;;;;2;243484077;243484077;-74
2021/10/16 10:42:44;;;;;;;;;41.00;36.00;;;;;;;;2;260615988;260615988;-79
2021/10/16 10:50:35;;;;;;;;;47.00;41.00;;;;;;;;2;238903707;238903707;-79
2021/10/16 10:59:16;;;;;;;;;42.50;38.00;;;;;;;;2;263727381;263727381;-78
2021/10/16 11:07:02;;;;;;;;;49.00;42.00;;;;;;;;2;241124517;241124517;-79
2021/10/16 11:15:44;;;;;;;;;25.50;25.50;;;;;;;;2;263704760;263704760;-78
2021/10/16 11:23:30;;;;;;;;;46.50;40.00;;;;;;;;2;247425504;247425504;-79
2021/10/16 11:32:22;;;;;;;;;18.50;18.50;;;;;;;;2;269057478;269057478;-76
2021/10/16 11:40:00;;;;;;;;;36.00;33.50;;;;;;;;2;241114005;241114005;-77
2021/10/16 11:48:35;;;;;;;;;54.50;46.00;;;;;;;;2;260737789;260737789;-77
2021/10/16 11:56:09;;;;;;;;;28.00;28.00;;;;;;;;2;240031969;240031969;-77
2021/10/16 12:05:08;;;;;;;;;36.50;33.00;;;;;;;;2;271144094;271144094;-79
2021/10/16 12:12:30;;;;;;;;;39.50;35.50;;;;;;;;2;232948258;232948258;-74
2021/10/16 12:20:50;;;;;;;;;19.00;19.00;;;;;;;;2;254912250;254912250;-79
2021/10/16 12:28:03;;;;;;;;;45.00;39.00;;;;;;;;2;225792312;225792312;-80
2021/10/16 12:36:22;;;;;;;;;41.00;36.50;;;;;;;;2;248546276;248546276;-80
2021/10/16 12:43:34;;;;;;;;;27.00;25.00;;;;;;;;2;225970201;225970201;-80
2021/10/16 12:51:54;;;;;;;;;45.50;39.50;;;;;;;;2;250568238;250568238;-80
2021/10/16 12:59:00;;;;;;;;;31.50;31.00;;;;;;;;2;226066249;226066249;-80
2021/10/16 13:07:08;;;;;;;;;39.00;35.50;;;;;;;;2;243588922;243588922;-76
2021/10/16 13:14:12;;;;;;;;;48.50;37.00;;;;;;;;2;224599269;224599269;-76
2021/10/16 13:22:27;;;;;;;;;41.50;36.50;;;;;;;;2;249299223;249299223;-76
2021/10/16 13:29:33;;;;;;;;;52.50;44.50;;;;;;;;2;224327295;224327295;-76
2021/10/16 13:37:41;;;;;;;;;19.00;19.00;;;;;;;;2;248342465;248342465;-77
2021/10/16 13:44:54;;;;;;;;;27.00;26.00;;;;;;;;2;228683804;228683804;-76
2021/10/16 13:53:08;;;;;;;;;52.50;44.50;;;;;;;;2;251989900;251989900;-76
2021/10/16 14:00:28;;;;;;;;;26.50;24.00;;;;;;;;2;230403447;230403447;-76
2021/10/16 14:09:03;;;;;;;;;42.50;38.00;;;;;;;;2;251753656;251753656;-78
2021/10/16 14:16:34;;;;;;;;;53.50;44.00;;;;;;;;2;245252056;245252056;-77
2021/10/16 14:25:06;;;;;;;;;35.50;33.00;;;;;;;;2;257756632;257756632;-77
2021/10/16 14:32:17;;;;;;;;;42.00;37.00;;;;;;;;2;228534765;228534765;-78
2021/10/16 14:40:20;;;;;;;;;43.50;38.00;;;;;;;;2;250327812;250327812;-78
2021/10/16 14:47:17;;;;;;;;;22.50;22.50;;;;;;;;2;219250556;219250556;-82
2021/10/16 14:55:27;;;;;;;;;57.00;43.50;;;;;;;;2;246998001;246998001;-78
2021/10/16 15:02:38;;;;;;;;;27.00;27.00;;;;;;;;2;227142877;227142877;-77
2021/10/16 15:10:29;;;;;;;;;35.00;31.50;;;;;;;;2;243679890;243679890;-81
2021/10/16 15:17:22;;;;;;;;;49.50;42.50;;;;;;;;2;221030586;221030586;-78
2021/10/16 15:25:05;;;;;;;;;31.00;30.50;;;;;;;;2;234799764;234799764;-76
2021/10/16 15:31:45;;;;;;;;;48.00;41.50;;;;;;;;2;210793552;210793552;-83
2021/10/16 15:39:53;;;;;;;;;52.50;44.50;;;;;;;;2;244692575;244692575;-75
2021/10/16 15:47:18;;;;;;;;;32.00;30.00;;;;;;;;2;229682390;229682390;-73
2021/10/16 15:55:41;;;;;;;;;57.00;47.50;;;;;;;;2;260688428;260688428;-73
2021/10/16 16:02:30;;;;;;;;;26.00;25.50;;;;;;;;2;218446801;218446801;-73
2021/10/16 16:10:52;;;;;;;;;40.50;32.00;;;;;;;;2;250774227;250774227;-71
2021/10/16 16:18:14;;;;;;;;;36.50;33.50;;;;;;;;2;233724011;233724011;-79
2021/10/16 16:26:44;;;;;;;;;30.00;28.50;;;;;;;;2;255901034;255901034;-79
2021/10/16 16:34:20;;;;;;;;;33.50;32.00;;;;;;;;2;241349242;241349242;-78
2021/10/16 16:46:05;;;;;;;;;40.50;34.50;;;;;;;;2;262825304;262825304;-77
2021/10/16 16:53:40;;;;;;;;;56.00;46.50;;;;;;;;2;242325060;242325060;-77
2021/10/16 17:02:09;;;;;;;;;41.50;36.50;;;;;;;;2;255781645;255781645;-77
2021/10/16 17:09:25;;;;;;;;;35.50;30.50;;;;;;;;2;228858341;228858341;-76
2021/10/16 17:17:47;;;;;;;;;65.00;49.00;;;;;;;;2;254642231;254642231;-76
2021/10/16 17:24:58;;;;;;;;;35.00;30.00;;;;;;;;2;228086570;228086570;-78
2021/10/16 17:33:10;;;;;;;;;29.00;24.50;;;;;;;;2;250318394;250318394;-77
2021/10/16 17:40:08;;;;;;;;;44.00;31.50;;;;;;;;2;223321611;223321611;-77
2021/10/16 17:48:08;;;;;;;;;52.00;42.50;;;;;;;;2;243654446;243654446;-76
2021/10/16 17:55:07;;;;;;;;;41.00;36.50;;;;;;;;2;221107965;221107965;-80
2021/10/16 18:02:59;;;;;;;;;32.00;29.50;;;;;;;;2;242008057;242008057;-81
2021/10/16 18:09:56;;;;;;;;;37.00;34.00;;;;;;;;2;220190554;220190554;-77
2021/10/16 18:18:05;;;;;;;;;36.50;33.50;;;;;;;;2;248312304;248312304;-75
2021/10/16 18:25:14;;;;;;;;;42.00;37.00;;;;;;;;2;229582760;229582760;-75
2021/10/16 18:33:09;;;;;;;;;54.50;44.00;;;;;;;;2;238963896;238963896;-77
2021/10/16 18:40:07;;;;;;;;;27.00;26.50;;;;;;;;2;218631853;218631853;-77
2021/10/16 18:48:04;;;;;;;;;46.50;38.00;;;;;;;;2;240245675;240245675;-80
2021/10/16 18:54:59;;;;;;;;;54.00;45.50;;;;;;;;2;219215364;219215364;-78
2021/10/16 19:03:09;;;;;;;;;39.50;35.50;;;;;;;;2;242679375;242679375;-77
2021/10/16 19:10:49;;;;;;;;;52.00;44.00;;;;;;;;2;242454895;242454895;-77
2021/10/16 19:19:35;;;;;;;;;44.50;39.00;;;;;;;;2;267343607;267343607;-77
2021/10/16 19:27:14;;;;;;;;;34.50;30.00;;;;;;;;2;241634835;241634835;-76
2021/10/16 19:35:48;;;;;;;;;39.00;35.00;;;;;;;;2;265256033;265256033;-78
2021/10/16 19:43:25;;;;;;;;;36.00;33.50;;;;;;;;2;240204541;240204541;-80
2021/10/16 19:52:06;;;;;;;;;33.50;31.50;;;;;;;;2;267330860;267330860;-80
2021/10/16 19:59:23;;;;;;;;;17.00;17.00;;;;;;;;2;227688465;227688465;-80
2021/10/16 20:10:11;;;;;;;;;44.50;39.00;;;;;;;;3;141721602;244929754;-80
2021/10/16 20:17:51;;;;;;;;;;;;;;;;;;2;234068572;234068572;-80
2021/10/16 20:24:48;;;;;;;;;33.00;31.50;;;;;;;;2;210435100;210435100;-81
2021/10/16 20:31:42;;;;;;;;;58.00;46.50;;;;;;;;2;179534458;179534458;-81
2021/10/16 20:39:12;;;;;;;;;64.50;54.50;;;;;;;;2;229292011;229292011;-79
2021/10/16 20:46:22;;;;;;;;;51.50;44.00;;;;;;;;2;193750973;193750973;-78
2021/10/16 20:53:27;;;;;;;;;48.50;41.50;;;;;;;;2;225473235;225473235;-80
2021/10/16 21:00:29;;;;;;;;;30.00;28.50;;;;;;;;2;188122122;188122122;-79
2021/10/16 21:08:12;;;;;;;;;39.00;35.50;;;;;;;;2;235539205;235539205;-79
2021/10/16 21:15:08;;;;;;;;;39.00;35.00;;;;;;;;2;175917972;175917972;-79
2021/10/16 21:22:47;;;;;;;;;55.50;46.50;;;;;;;;2;236331836;236331836;-81
2021/10/16 21:29:23;;;;;;;;;49.50;42.00;;;;;;;;2;180848819;180848819;-77
2021/10/16 21:36:17;;;;;;;;;50.50;42.00;;;;;;;;2;206296352;206296352;-80
2021/10/16 21:43:22;;;;;;;;;57.00;47.50;;;;;;;;2;190912852;190912852;-78
2021/10/16 21:50:25;;;;;;;;;34.50;32.00;;;;;;;;2;218746096;218746096;-80
2021/10/16 21:53:43;;;;;;;;;54.50;44.50;;;;;;;;161299;30;162441755;-81
2021/10/16 22:00:43;;;;;;;;;49.00;42.00;;;;;;;;147164;30;183648000;-80
2021/10/16 22:07:14;;;;;;;;;45.50;39.00;;;;;;;;2;205045048;205045048;-80
2021/10/16 22:13:57;;;;;;;;;41.50;35.50;;;;;;;;2;182404359;182404359;-77
2021/10/16 22:20:39;;;;;;;;;55.50;44.00;;;;;;;;2;203770018;203770018;-77
2021/10/16 22:26:55;;;;;;;;;62.00;49.50;;;;;;;;2;164337055;164337055;-77
2021/10/16 22:31:20;;;;;;;;;58.50;43.50;;;;;;;;2;187249018;187249018;-77
2021/10/16 22:35:47;;;;;;;;;47.50;40.50;;;;;;;;3;40271120;143120573;-76
2021/10/16 22:43:54;;;;;;;;;44.50;38.50;;;;;;;;5;28744089;85594552;-77
2021/10/16 22:48:01;;;;;;;;;;;;;;;;;;2;232914046;232914046;-79
2021/10/16 22:55:55;;;;;;;;;56.00;47.00;;;;;;;;8;15162608;49728340;-75
2021/10/16 23:03:01;;;;;;;;;;;;;;;;;;2;279079650;279079650;-76
2021/10/16 23:10:25;;;;;;;;;38.00;33.00;;;;;;;;3;121163908;155294568;-77
2021/10/16 23:15:32;;;;;;;;;56.00;47.00;;;;;;;;2;162866704;162866704;-76
2021/10/16 23:21:03;;;;;;;;;53.50;45.50;;;;;;;;2;172420478;172420478;-76
2021/10/16 23:26:02;;;;;;;;;52.50;44.50;;;;;;;;2;158677707;158677707;-77
2021/10/16 23:32:39;;;;;;;;;60.50;47.00;;;;;;;;3;109835013;147439159;-77
2021/10/16 23:41:17;;;;;;;;;60.00;48.50;;;;;;;;3;109489256;129739732;-77
2021/10/16 23:45:58;;;;;;;;;;;;;;;;;;2;261077382;261077382;-77
2021/10/16 23:50:15;;;;;;;;;54.00;43.50;;;;;;;;4;51410405;112876581;-78
2021/10/16 23:55:45;;;;;;;;;51.50;44.00;;;;;;;;2;162685819;162685819;-78
